aviador You're here:

SANT Decoded Metar

TUCUMAN in ARGENTINA
Report Time2017-09-20 16:00:00
UTC Time2017-09-20 16:35:51
Flight Rules mvfr MVFR
Wind270° at 06 kt
W.Decomp.*RWY 19: 0.4 kt HW 6.0 kt RCW
W.Rank270° ranks 3
Current wind is above 270° avg. (5.2)
Visibility5000 m
Phenomena:Smoke
Clouds:N/A
Expected CloudBase > 7,200 ft AGL from Temp-Dew spread
CeilingNone
Temp32°C (ISA +20)
Dew Point14°C (33% RH)
Heat Index31.2°C
AAT31.0°C
QNH1006 hPa
Density Alt4,196 ft
Elevation1,476 ft
Report Wrong Elevation
Raw Report
METAR SANT 201600Z 27006KT 5000 FU NSC 32/14 Q1006=

Extra information for SANT:More info

Metar Taf Metar & Taf Last 4 Metars F.Rules Stats Wind Profile Meteogram Temp Stats Airport Information Weather charts Add Link Nearby VenuesMetar ALERT Operation Metar Decoded Social comments